createdAt,value
2019-05-06T00:00:58.928Z,98.40
2019-05-06T00:03:24.806Z,98.70
2019-05-06T00:05:54.390Z,99.30
2019-05-06T00:08:23.651Z,99.20
2019-05-06T00:10:54.299Z,99.30
2019-05-06T00:13:24.158Z,99.50
2019-05-06T00:15:54.336Z,99.70
2019-05-06T00:18:24.522Z,99.20
2019-05-06T00:20:54.842Z,98.70
2019-05-06T00:23:25.722Z,98.70
2019-05-06T00:25:58.834Z,98.70
2019-05-06T00:28:34.044Z,98.60
2019-05-06T00:31:12.743Z,99.20
2019-05-06T00:33:35.030Z,99.10
2019-05-06T00:36:04.668Z,99.30
2019-05-06T00:38:34.183Z,99.30
2019-05-06T00:41:07.478Z,99.60
2019-05-06T00:43:39.170Z,99.70
2019-05-06T00:46:08.002Z,99.50
2019-05-06T00:48:36.790Z,99.40
2019-05-06T00:51:05.638Z,99.00
2019-05-06T00:53:38.905Z,99.10
2019-05-06T00:56:07.711Z,99.10
2019-05-06T00:58:36.541Z,98.80
2019-05-06T01:01:05.347Z,98.80
2019-05-06T01:03:34.882Z,98.30
2019-05-06T01:06:04.251Z,98.00
2019-05-06T01:08:34.826Z,97.80
2019-05-06T01:11:06.943Z,97.50
2019-05-06T01:13:54.389Z,97.50
2019-05-06T01:16:24.844Z,97.70
2019-05-06T01:18:54.137Z,97.30
2019-05-06T01:21:23.917Z,97.30
2019-05-06T01:23:54.527Z,97.50
2019-05-06T01:26:24.299Z,97.40
2019-05-06T01:28:54.683Z,97.30
2019-05-06T01:31:39.897Z,97.50
2019-05-06T01:33:57.203Z,97.80
2019-05-06T01:36:26.031Z,98.10
2019-05-06T01:39:08.207Z,98.10
2019-05-06T01:41:44.747Z,98.10
2019-05-06T01:44:14.100Z,98.20
2019-05-06T01:46:44.589Z,98.40
2019-05-06T01:49:14.122Z,98.40
2019-05-06T01:51:43.837Z,98.80
2019-05-06T01:54:14.155Z,98.60
2019-05-06T01:56:44.503Z,98.60
2019-05-06T01:59:14.120Z,98.80
2019-05-06T02:01:54.904Z,98.60
2019-05-06T02:04:14.215Z,98.60
2019-05-06T02:06:43.813Z,98.60
2019-05-06T02:09:16.839Z,98.80
2019-05-06T02:11:47.872Z,98.60
2019-05-06T02:14:16.080Z,98.60
2019-05-06T02:16:44.812Z,98.60
2019-05-06T02:19:14.874Z,98.50
2019-05-06T02:21:45.407Z,98.60
2019-05-06T02:24:15.874Z,98.40
2019-05-06T02:26:46.187Z,98.50
2019-05-06T02:29:16.976Z,98.40
2019-05-06T02:32:17.493Z,98.50
2019-05-06T02:34:45.911Z,98.30
2019-05-06T02:37:21.641Z,98.20
2019-05-06T02:39:53.259Z,98.50
2019-05-06T02:42:23.665Z,98.40
2019-05-06T02:44:53.338Z,98.30
2019-05-06T02:47:34.318Z,98.60
2019-05-06T02:50:07.358Z,98.20
2019-05-06T02:52:36.157Z,98.20
2019-05-06T02:55:07.034Z,98.50
2019-05-06T02:57:35.834Z,98.40
2019-05-06T03:00:07.590Z,98.50
2019-05-06T03:02:43.281Z,98.50
2019-05-06T03:05:07.826Z,98.60
2019-05-06T03:07:37.750Z,98.30
2019-05-06T03:10:12.774Z,98.20
2019-05-06T03:12:42.896Z,98.20
2019-05-06T03:15:16.148Z,97.90
2019-05-06T03:17:44.775Z,98.00
2019-05-06T03:20:18.097Z,97.90
2019-05-06T03:22:54.372Z,98.00
2019-05-06T03:25:24.116Z,97.90
2019-05-06T03:27:53.307Z,98.10
2019-05-06T03:30:25.331Z,98.20
2019-05-06T03:33:27.441Z,98.50
2019-05-06T03:35:36.088Z,98.80
2019-05-06T03:37:53.712Z,99.00
2019-05-06T03:40:23.061Z,99.00
2019-05-06T03:42:53.950Z,99.10
2019-05-06T03:45:27.412Z,99.10
2019-05-06T03:47:58.767Z,99.10
2019-05-06T03:50:27.672Z,98.90
2019-05-06T03:52:57.182Z,99.00
2019-05-06T03:55:27.143Z,98.80
2019-05-06T03:57:57.332Z,99.20
2019-05-06T04:00:26.139Z,98.70
2019-05-06T04:02:55.124Z,98.70
2019-05-06T04:05:24.098Z,98.80
2019-05-06T04:07:54.527Z,98.70
2019-05-06T04:10:23.425Z,98.90
2019-05-06T04:12:53.627Z,98.80
2019-05-06T04:15:26.886Z,99.10
2019-05-06T04:17:57.462Z,98.80
2019-05-06T04:20:49.127Z,98.90
2019-05-06T04:23:36.960Z,98.80
2019-05-06T04:26:08.249Z,98.90
2019-05-06T04:28:37.758Z,99.00
2019-05-06T04:31:06.628Z,98.90
2019-05-06T04:33:35.466Z,98.90
2019-05-06T04:36:04.338Z,99.20
2019-05-06T04:38:33.898Z,99.20
2019-05-06T04:41:03.049Z,99.40
2019-05-06T04:43:33.593Z,98.90
2019-05-06T04:46:03.354Z,98.90
2019-05-06T04:48:32.883Z,98.90
2019-05-06T04:51:03.345Z,99.10
2019-05-06T04:53:33.820Z,98.80
2019-05-06T04:56:04.122Z,98.90
2019-05-06T04:58:33.692Z,98.70
2019-05-06T05:01:04.136Z,98.60
2019-05-06T05:03:33.787Z,98.60
2019-05-06T05:06:05.617Z,98.60
2019-05-06T05:08:36.666Z,98.50
2019-05-06T05:11:14.045Z,98.60
2019-05-06T05:13:53.153Z,98.30
2019-05-06T05:16:23.651Z,98.30
2019-05-06T05:18:54.072Z,98.30
2019-05-06T05:21:25.647Z,98.30
2019-05-06T05:23:55.023Z,98.20
2019-05-06T05:26:23.818Z,98.20
2019-05-06T05:28:53.299Z,98.10
2019-05-06T05:31:24.389Z,98.10
2019-05-06T05:33:53.117Z,97.90
2019-05-06T05:36:23.209Z,98.30
2019-05-06T05:38:52.380Z,98.20
2019-05-06T05:41:23.297Z,98.20
2019-05-06T05:43:54.174Z,98.20
2019-05-06T05:46:23.024Z,98.10
2019-05-06T05:48:56.318Z,98.10
2019-05-06T05:51:25.117Z,98.10
2019-05-06T05:53:54.733Z,98.00
2019-05-06T05:56:24.047Z,98.20
2019-05-06T05:58:53.685Z,98.20
2019-05-06T06:01:24.299Z,98.30
2019-05-06T06:03:54.499Z,98.30
2019-05-06T06:06:23.250Z,98.30
2019-05-06T06:08:52.454Z,98.10
2019-05-06T06:11:29.494Z,97.90
2019-05-06T06:13:59.889Z,98.00
2019-05-06T06:16:45.671Z,98.00
2019-05-06T06:19:32.895Z,98.00
2019-05-06T06:22:15.195Z,97.90
2019-05-06T06:24:44.398Z,97.70
2019-05-06T06:27:13.295Z,97.50
2019-05-06T06:29:45.137Z,97.70
2019-05-06T06:32:14.986Z,97.40
2019-05-06T06:34:45.488Z,97.20
2019-05-06T06:37:27.618Z,97.20
2019-05-06T06:39:57.539Z,97.90
2019-05-06T06:42:26.570Z,97.50
2019-05-06T06:44:55.410Z,96.40
2019-05-06T06:47:24.232Z,96.50
2019-05-06T06:49:53.556Z,96.00
2019-05-06T06:52:23.292Z,96.20
2019-05-06T06:54:52.844Z,96.10
2019-05-06T06:57:23.583Z,96.40
2019-05-06T06:59:58.914Z,96.40
2019-05-06T07:02:32.676Z,96.00
2019-05-06T07:05:04.149Z,96.20
2019-05-06T07:07:43.636Z,96.20
2019-05-06T07:10:08.616Z,96.10
2019-05-06T07:12:37.556Z,95.70
2019-05-06T07:15:07.646Z,95.70
2019-05-06T07:17:36.439Z,95.50
2019-05-06T07:20:10.670Z,95.80
2019-05-06T07:22:39.664Z,96.20
2019-05-06T07:25:10.077Z,96.30
2019-05-06T07:27:38.845Z,96.30
2019-05-06T07:30:09.049Z,96.30
2019-05-06T07:32:37.827Z,95.70
2019-05-06T07:35:07.740Z,96.10
2019-05-06T07:37:45.566Z,96.40
2019-05-06T07:40:17.166Z,96.40
2019-05-06T07:42:47.548Z,96.10
2019-05-06T07:45:22.007Z,96.40
2019-05-06T07:47:53.143Z,96.10
2019-05-06T07:50:22.436Z,95.40
2019-05-06T07:53:06.490Z,95.50
2019-05-06T07:55:35.861Z,95.20
2019-05-06T07:58:07.157Z,94.90
2019-05-06T08:00:37.016Z,94.60
2019-05-06T08:03:05.916Z,94.60
2019-05-06T08:05:34.737Z,93.70
2019-05-06T08:08:03.948Z,94.80
2019-05-06T08:10:33.279Z,94.40
2019-05-06T08:13:02.879Z,92.80
2019-05-06T08:15:32.773Z,92.80
2019-05-06T08:18:03.370Z,92.90
2019-05-06T08:20:38.396Z,93.10
2019-05-06T08:23:12.568Z,93.70
2019-05-06T08:25:43.296Z,93.20
2019-05-06T08:28:13.290Z,93.00
2019-05-06T08:30:43.270Z,93.10
2019-05-06T08:33:12.860Z,93.20
2019-05-06T08:35:42.589Z,93.70
2019-05-06T08:38:12.299Z,93.60
2019-05-06T08:40:43.121Z,93.50
2019-05-06T08:43:13.145Z,93.60
2019-05-06T08:45:42.372Z,93.20
2019-05-06T08:48:13.007Z,92.40
2019-05-06T08:50:45.956Z,92.80
2019-05-06T08:53:16.506Z,92.40
2019-05-06T08:55:50.096Z,91.90
2019-05-06T08:58:18.928Z,91.60
2019-05-06T09:00:49.376Z,91.20
2019-05-06T09:03:18.489Z,91.10
2019-05-06T09:05:56.184Z,90.90
2019-05-06T09:08:25.430Z,90.30
2019-05-06T09:10:54.254Z,91.00
2019-05-06T09:13:24.761Z,91.20
2019-05-06T09:15:53.477Z,90.90
2019-05-06T09:18:24.088Z,91.40
2019-05-06T09:20:53.662Z,91.30
2019-05-06T09:23:22.886Z,91.00
2019-05-06T09:25:53.132Z,90.60
2019-05-06T09:28:29.830Z,90.80
2019-05-06T09:31:15.551Z,88.90
2019-05-06T09:33:48.694Z,90.00
2019-05-06T09:36:17.458Z,90.30
2019-05-06T09:38:46.282Z,91.10
2019-05-06T09:41:15.061Z,91.20
2019-05-06T09:43:43.847Z,91.50
2019-05-06T09:46:13.008Z,91.70
2019-05-06T09:48:43.575Z,92.30
2019-05-06T09:51:13.168Z,91.60
2019-05-06T09:54:04.096Z,90.90
2019-05-06T09:56:42.873Z,90.70
2019-05-06T09:59:12.902Z,90.10
2019-05-06T10:01:43.728Z,90.00
2019-05-06T10:04:13.059Z,90.00
2019-05-06T10:06:55.663Z,90.10
2019-05-06T10:09:16.667Z,90.20
2019-05-06T10:11:48.331Z,90.60
2019-05-06T10:14:17.149Z,90.40
2019-05-06T10:16:45.965Z,90.40
2019-05-06T10:19:14.898Z,90.20
2019-05-06T10:21:43.704Z,90.30
2019-05-06T10:24:12.534Z,90.50
2019-05-06T10:26:43.288Z,90.10
2019-05-06T10:29:25.695Z,90.90
2019-05-06T10:32:12.720Z,91.60
2019-05-06T10:34:43.462Z,92.50
2019-05-06T10:37:19.675Z,92.30
2019-05-06T10:39:54.618Z,91.80
2019-05-06T10:42:26.394Z,91.90
2019-05-06T10:45:13.028Z,91.30
2019-05-06T10:47:42.347Z,91.00
2019-05-06T10:50:12.600Z,91.60
2019-05-06T10:52:59.724Z,89.40
2019-05-06T10:55:28.518Z,86.90
2019-05-06T10:57:57.318Z,86.80
2019-05-06T11:00:27.950Z,87.80
2019-05-06T11:03:14.490Z,87.60
2019-05-06T11:05:42.932Z,87.30
2019-05-06T11:08:11.270Z,88.90
2019-05-06T11:10:42.198Z,90.30
2019-05-06T11:13:12.850Z,90.10
2019-05-06T11:15:43.356Z,90.50
2019-05-06T11:18:13.603Z,90.60
2019-05-06T11:20:43.837Z,91.20
2019-05-06T11:23:14.258Z,91.20
2019-05-06T11:25:43.294Z,87.20
2019-05-06T11:28:35.009Z,85.50
2019-05-06T11:31:02.705Z,87.60
2019-05-06T11:33:52.556Z,86.40
2019-05-06T11:36:23.107Z,84.50
2019-05-06T11:38:52.256Z,84.40
2019-05-06T11:41:23.397Z,84.70
2019-05-06T11:43:52.199Z,86.10
2019-05-06T11:46:22.856Z,84.60
2019-05-06T11:48:52.264Z,80.70
2019-05-06T11:51:23.133Z,83.20
2019-05-06T11:53:54.046Z,83.90
2019-05-06T11:56:23.131Z,82.20
2019-05-06T11:58:56.697Z,82.90
2019-05-06T12:01:39.096Z,86.00
2019-05-06T12:04:07.911Z,83.00
2019-05-06T12:06:36.762Z,82.40
2019-05-06T12:09:08.671Z,81.00
2019-05-06T12:11:37.827Z,79.70
2019-05-06T12:14:06.678Z,83.20
2019-05-06T12:16:35.667Z,85.10
2019-05-06T12:19:04.422Z,85.30
2019-05-06T12:21:33.272Z,85.00
2019-05-06T12:24:02.901Z,85.90
2019-05-06T12:26:32.364Z,87.50
2019-05-06T12:29:02.148Z,84.00
2019-05-06T12:31:34.069Z,83.10
2019-05-06T12:34:02.954Z,84.00
2019-05-06T12:36:33.245Z,82.00
2019-05-06T12:39:17.358Z,85.50
2019-05-06T12:42:05.876Z,87.80
2019-05-06T12:44:36.299Z,88.40
2019-05-06T12:47:09.645Z,89.60
2019-05-06T12:49:38.390Z,90.50
2019-05-06T12:52:07.244Z,90.30
2019-05-06T12:54:35.995Z,90.50
2019-05-06T12:57:04.823Z,90.80
2019-05-06T12:59:33.687Z,89.70
2019-05-06T13:02:02.966Z,88.10
2019-05-06T13:04:50.389Z,86.00
2019-05-06T13:07:02.966Z,86.60
2019-05-06T13:09:33.141Z,85.90
2019-05-06T13:12:03.918Z,84.50
2019-05-06T13:14:38.512Z,84.50
2019-05-06T13:17:08.905Z,83.40
2019-05-06T13:19:37.742Z,83.40
2019-05-06T13:22:09.640Z,79.90
2019-05-06T13:24:38.464Z,80.00
2019-05-06T13:27:08.969Z,78.00
2019-05-06T13:29:37.800Z,78.70
2019-05-06T13:32:08.181Z,78.10
2019-05-06T13:34:37.002Z,76.80
2019-05-06T13:37:06.112Z,76.80
2019-05-06T13:39:34.830Z,76.00
2019-05-06T13:42:03.533Z,75.70
2019-05-06T13:44:33.054Z,76.10
2019-05-06T13:47:02.944Z,75.00
2019-05-06T13:49:36.667Z,76.70
2019-05-06T13:52:07.140Z,75.70
2019-05-06T13:54:36.028Z,76.90
2019-05-06T13:57:05.148Z,76.00
2019-05-06T13:59:35.145Z,75.10
2019-05-06T14:02:24.922Z,71.20
2019-05-06T14:04:53.786Z,68.70
2019-05-06T14:07:24.334Z,70.60
2019-05-06T14:09:53.356Z,72.30
2019-05-06T14:12:22.453Z,74.80
2019-05-06T14:14:52.705Z,76.50
2019-05-06T14:17:22.338Z,76.10
2019-05-06T14:19:53.318Z,74.50
2019-05-06T14:22:23.209Z,79.10
2019-05-06T14:24:59.825Z,76.00
2019-05-06T14:27:28.629Z,73.90
2019-05-06T14:30:04.150Z,71.40
2019-05-06T14:32:32.813Z,71.50
2019-05-06T14:35:01.432Z,72.90
2019-05-06T14:37:32.788Z,71.00
2019-05-06T14:40:02.599Z,72.00
2019-05-06T14:42:32.966Z,68.20
2019-05-06T14:45:01.869Z,67.30
2019-05-06T14:47:32.816Z,70.10
2019-05-06T14:50:03.913Z,73.10
2019-05-06T14:52:33.401Z,73.80
2019-05-06T14:55:04.136Z,74.00
2019-05-06T14:57:32.875Z,74.70
2019-05-06T15:00:04.142Z,73.90
2019-05-06T15:02:33.795Z,73.00
2019-05-06T15:05:03.209Z,73.90
2019-05-06T15:07:32.907Z,72.70
2019-05-06T15:10:16.476Z,74.00
2019-05-06T15:12:33.321Z,75.10
2019-05-06T15:15:03.821Z,74.60
2019-05-06T15:17:36.523Z,74.40
2019-05-06T15:20:04.564Z,72.60
2019-05-06T15:22:33.336Z,73.90
2019-05-06T15:25:02.487Z,69.20
2019-05-06T15:27:33.460Z,69.80
2019-05-06T15:30:03.539Z,70.10
2019-05-06T15:32:53.040Z,68.50
2019-05-06T15:35:23.438Z,67.50
2019-05-06T15:38:03.176Z,68.00
2019-05-06T15:40:36.419Z,65.70
2019-05-06T15:43:02.488Z,70.40
2019-05-06T15:45:32.482Z,65.30
2019-05-06T15:48:02.689Z,65.60
2019-05-06T15:50:32.434Z,67.30
2019-05-06T15:53:02.316Z,61.50
2019-05-06T15:55:32.685Z,60.20
2019-05-06T15:58:03.444Z,61.80
2019-05-06T16:00:33.084Z,62.20
2019-05-06T16:03:02.205Z,63.00
2019-05-06T16:05:34.171Z,62.10
2019-05-06T16:08:02.833Z,64.60
2019-05-06T16:10:37.909Z,68.70
2019-05-06T16:13:02.454Z,67.30
2019-05-06T16:15:33.558Z,68.50
2019-05-06T16:18:02.266Z,65.90
2019-05-06T16:20:33.149Z,65.50
2019-05-06T16:23:06.833Z,68.20
2019-05-06T16:25:35.686Z,67.30
2019-05-06T16:28:04.474Z,68.80
2019-05-06T16:30:33.907Z,69.60
2019-05-06T16:33:04.096Z,70.60
2019-05-06T16:35:33.255Z,66.40
2019-05-06T16:38:02.374Z,67.70
2019-05-06T16:40:33.652Z,64.60
2019-05-06T16:43:02.173Z,64.90
2019-05-06T16:45:31.014Z,64.10
2019-05-06T16:47:59.836Z,67.30
2019-05-06T16:50:29.685Z,65.90
2019-05-06T16:52:59.122Z,66.30
2019-05-06T16:55:45.904Z,68.20
2019-05-06T16:58:16.320Z,68.70
2019-05-06T17:00:45.132Z,67.00
2019-05-06T17:03:23.141Z,65.70
2019-05-06T17:06:02.646Z,65.20
2019-05-06T17:08:35.955Z,65.40
2019-05-06T17:11:04.393Z,65.30
2019-05-06T17:13:37.768Z,64.70
2019-05-06T17:16:08.224Z,64.70
2019-05-06T17:18:38.627Z,67.10
2019-05-06T17:21:07.484Z,65.10
2019-05-06T17:23:36.224Z,65.60
2019-05-06T17:26:05.044Z,68.70
2019-05-06T17:28:44.613Z,64.90
2019-05-06T17:31:26.798Z,66.20
2019-05-06T17:34:06.090Z,66.10
2019-05-06T17:36:36.473Z,66.10
2019-05-06T17:39:09.343Z,66.10
2019-05-06T17:41:46.067Z,67.10
2019-05-06T17:44:12.055Z,66.10
2019-05-06T17:46:58.423Z,65.90
2019-05-06T17:49:28.793Z,66.10
2019-05-06T17:52:10.937Z,65.90
2019-05-06T17:54:39.794Z,67.20
2019-05-06T17:57:08.600Z,69.40
2019-05-06T17:59:37.873Z,70.50
2019-05-06T18:02:14.943Z,73.10
2019-05-06T18:04:44.622Z,71.40
2019-05-06T18:07:13.354Z,71.20
2019-05-06T18:09:42.705Z,71.90
2019-05-06T18:12:12.187Z,69.80
2019-05-06T18:14:43.277Z,65.50
2019-05-06T18:17:12.458Z,67.90
2019-05-06T18:19:41.573Z,69.90
2019-05-06T18:22:10.310Z,69.50
2019-05-06T18:24:39.222Z,70.40
2019-05-06T18:27:08.007Z,69.20
2019-05-06T18:29:36.829Z,69.90
2019-05-06T18:32:05.661Z,69.20
2019-05-06T18:34:34.500Z,68.00
2019-05-06T18:37:03.421Z,63.70
2019-05-06T18:39:33.638Z,66.10
2019-05-06T18:42:15.704Z,68.60
2019-05-06T18:44:33.632Z,70.20
2019-05-06T18:47:02.914Z,71.40
2019-05-06T18:49:33.700Z,71.70
2019-05-06T18:52:02.442Z,71.10
2019-05-06T18:54:33.738Z,71.60
2019-05-06T18:57:04.286Z,72.20
2019-05-06T18:59:33.028Z,72.10
2019-05-06T19:02:02.278Z,72.70
2019-05-06T19:04:33.477Z,72.30
2019-05-06T19:07:10.535Z,72.10
2019-05-06T19:09:52.186Z,72.90
2019-05-06T19:12:30.248Z,73.40
2019-05-06T19:14:52.578Z,72.20
2019-05-06T19:17:24.047Z,74.20
2019-05-06T19:19:53.654Z,73.50
2019-05-06T19:22:23.202Z,74.20
2019-05-06T19:24:53.211Z,74.90
2019-05-06T19:27:24.761Z,75.30
2019-05-06T19:29:54.696Z,75.90
2019-05-06T19:32:26.846Z,76.30
2019-05-06T19:34:55.992Z,77.00
2019-05-06T19:37:27.128Z,76.80
2019-05-06T19:39:56.928Z,77.40
2019-05-06T19:42:26.384Z,78.50
2019-05-06T19:44:55.668Z,83.40
2019-05-06T19:47:25.354Z,85.80
2019-05-06T19:49:54.953Z,86.40
2019-05-06T19:52:25.746Z,87.10
2019-05-06T19:54:55.157Z,88.20
2019-05-06T19:57:24.793Z,88.20
2019-05-06T19:59:56.285Z,88.90
2019-05-06T20:02:25.963Z,88.00
2019-05-06T20:04:57.588Z,89.60
2019-05-06T20:07:32.743Z,88.60
2019-05-06T20:10:03.253Z,89.10
2019-05-06T20:12:40.644Z,89.60
2019-05-06T20:15:29.517Z,90.20
2019-05-06T20:17:59.097Z,90.30
2019-05-06T20:20:31.853Z,90.60
2019-05-06T20:23:04.914Z,90.60
2019-05-06T20:25:36.934Z,91.20
2019-05-06T20:28:06.344Z,91.30
2019-05-06T20:30:36.128Z,91.40
2019-05-06T20:33:05.829Z,91.70
2019-05-06T20:35:35.297Z,91.70
2019-05-06T20:38:04.993Z,92.00
2019-05-06T20:40:34.805Z,91.90
2019-05-06T20:43:16.640Z,91.80
2019-05-06T20:45:35.665Z,92.40
2019-05-06T20:48:05.495Z,92.30
2019-05-06T20:50:38.525Z,92.40
2019-05-06T20:53:11.969Z,92.70
2019-05-06T20:55:43.161Z,92.60
2019-05-06T20:58:12.578Z,92.90
2019-05-06T21:00:42.924Z,92.90
2019-05-06T21:03:13.043Z,93.00
2019-05-06T21:05:43.527Z,93.10
2019-05-06T21:08:14.836Z,93.30
2019-05-06T21:10:44.472Z,93.80
2019-05-06T21:13:27.667Z,93.60
2019-05-06T21:15:45.676Z,93.70
2019-05-06T21:18:17.114Z,93.90
2019-05-06T21:20:46.732Z,94.30
2019-05-06T21:23:15.731Z,94.00
2019-05-06T21:25:44.913Z,94.10
2019-05-06T21:28:14.896Z,94.20
2019-05-06T21:30:44.542Z,94.50
2019-05-06T21:33:14.176Z,94.80
2019-05-06T21:35:43.726Z,94.60
2019-05-06T21:38:13.418Z,94.60
2019-05-06T21:40:43.510Z,94.80
2019-05-06T21:43:13.335Z,94.90
2019-05-06T21:45:43.199Z,95.00
2019-05-06T21:48:15.080Z,95.00
2019-05-06T21:50:44.725Z,94.90
2019-05-06T21:53:16.178Z,95.00
2019-05-06T21:55:45.672Z,94.90
2019-05-06T21:58:14.918Z,94.80
2019-05-06T22:00:49.157Z,95.00
2019-05-06T22:03:22.825Z,94.90
2019-05-06T22:05:54.340Z,94.80
2019-05-06T22:08:25.574Z,94.40
2019-05-06T22:10:54.779Z,95.00
2019-05-06T22:13:25.922Z,94.40
2019-05-06T22:15:55.533Z,94.20
2019-05-06T22:18:30.727Z,94.40
2019-05-06T22:21:12.875Z,95.20
2019-05-06T22:23:55.885Z,95.20
2019-05-06T22:26:25.977Z,95.60
2019-05-06T22:28:58.988Z,95.30
2019-05-06T22:31:30.084Z,95.40
2019-05-06T22:33:59.547Z,95.30
2019-05-06T22:36:32.223Z,95.40
2019-05-06T22:39:02.448Z,95.40
2019-05-06T22:41:32.601Z,95.60
2019-05-06T22:44:13.196Z,95.20
2019-05-06T22:46:33.755Z,95.20
2019-05-06T22:49:03.925Z,95.30
2019-05-06T22:51:33.100Z,95.10
2019-05-06T22:54:02.937Z,94.70
2019-05-06T22:56:34.218Z,95.20
2019-05-06T22:59:03.735Z,95.10
2019-05-06T23:01:44.219Z,95.00
2019-05-06T23:04:15.326Z,94.90
2019-05-06T23:06:44.721Z,95.30
2019-05-06T23:09:14.446Z,95.60
2019-05-06T23:11:43.781Z,95.90
2019-05-06T23:14:27.663Z,96.00
2019-05-06T23:16:45.314Z,95.20
2019-05-06T23:19:14.587Z,95.70
2019-05-06T23:21:44.020Z,95.80
2019-05-06T23:24:15.540Z,96.10
2019-05-06T23:26:45.221Z,95.90
2019-05-06T23:29:16.395Z,96.20
2019-05-06T23:31:45.233Z,96.30
2019-05-06T23:34:14.169Z,96.80
2019-05-06T23:37:02.720Z,96.80
2019-05-06T23:40:08.981Z,96.90
2019-05-06T23:43:13.851Z,96.80
2019-05-06T23:46:18.981Z,96.80
2019-05-06T23:49:24.075Z,96.70
2019-05-06T23:52:31.880Z,96.80
2019-05-06T23:55:36.628Z,96.80
2019-05-06T23:58:04.239Z,96.60
